Terminal Aerodrome Forecast
Issued by NWS Charleston, WV

Current Version | Previous Version | Graphics & Text | Print | Product List | Glossary On
Versions: 1 2 3 4 5 6 7 8 9 10 11 12 13 14 15 16 17 18 19 20 21 22 23 24 25 26 27 28 29 30
000
FTUS41 KRLX 240600 RRA
TAFBKW
TAF
KBKW 240601Z 2406/2506 15004KT P6SM BKN060
     FM241700 VRB03KT P6SM BKN045
     FM250000 15004KT 6SM BR BKN040
     FM250100 15005KT P6SM BKN035
     FM250200 15006KT P6SM BKN030
     FM250500 14009G14KT 5SM BR BKN015=

USA.gov is the U.S. government's official web portal to all federal, state and local government web resources and services.